createdAt,value
2018-07-30T00:01:41.163Z,7.17
2018-07-30T00:04:16.253Z,7.23
2018-07-30T00:06:51.038Z,6.80
2018-07-30T00:09:25.626Z,7.60
2018-07-30T00:12:00.647Z,6.80
2018-07-30T00:14:35.711Z,7.03
2018-07-30T00:17:10.676Z,7.40
2018-07-30T00:19:45.769Z,6.83
2018-07-30T00:22:20.615Z,6.97
2018-07-30T00:24:55.718Z,7.07
2018-07-30T00:27:30.850Z,6.13
2018-07-30T00:30:06.010Z,6.17
2018-07-30T00:32:40.809Z,6.40
2018-07-30T00:35:15.812Z,6.17
2018-07-30T00:37:51.115Z,5.80
2018-07-30T00:40:26.406Z,5.70
2018-07-30T00:43:01.587Z,5.33
2018-07-30T00:45:36.382Z,5.30
2018-07-30T00:48:11.459Z,5.30
2018-07-30T00:50:46.691Z,5.37
2018-07-30T00:53:21.771Z,5.70
2018-07-30T00:55:51.197Z,5.33
2018-07-30T00:58:26.159Z,5.80
2018-07-30T01:01:00.953Z,6.20
2018-07-30T01:03:35.751Z,5.03
2018-07-30T01:06:10.769Z,6.13
2018-07-30T01:08:45.825Z,5.70
2018-07-30T01:11:20.254Z,6.47
2018-07-30T01:13:55.529Z,6.60
2018-07-30T01:16:30.411Z,6.50
2018-07-30T01:19:05.495Z,6.40
2018-07-30T01:21:41.026Z,6.77
2018-07-30T01:24:16.006Z,7.00
2018-07-30T01:26:51.049Z,6.93
2018-07-30T01:29:26.055Z,6.50
2018-07-30T01:32:01.539Z,6.03
2018-07-30T01:34:36.489Z,6.07
2018-07-30T01:37:12.295Z,6.13
2018-07-30T01:39:47.371Z,6.40
2018-07-30T01:42:22.285Z,6.60
2018-07-30T01:44:57.267Z,6.13
2018-07-30T01:47:32.287Z,6.37
2018-07-30T01:50:07.913Z,6.37
2018-07-30T01:52:43.090Z,6.07
2018-07-30T01:55:18.422Z,6.57
2018-07-30T01:57:53.379Z,6.37
2018-07-30T02:00:28.477Z,6.80
2018-07-30T02:03:03.331Z,6.87
2018-07-30T02:05:44.846Z,7.33
2018-07-30T02:08:20.086Z,6.87
2018-07-30T02:10:55.052Z,6.57
2018-07-30T02:13:30.072Z,6.67
2018-07-30T02:16:04.988Z,7.17
2018-07-30T02:18:39.900Z,6.63
2018-07-30T02:21:15.008Z,6.10
2018-07-30T02:23:50.279Z,6.50
2018-07-30T02:26:25.306Z,6.77
2018-07-30T02:29:00.627Z,6.53
2018-07-30T02:31:35.493Z,7.00
2018-07-30T02:34:14.571Z,6.50
2018-07-30T02:36:49.658Z,6.97
2018-07-30T02:39:24.686Z,6.40
2018-07-30T02:41:59.589Z,7.00
2018-07-30T02:44:34.851Z,6.63
2018-07-30T02:47:10.036Z,6.23
2018-07-30T02:49:44.855Z,6.40
2018-07-30T02:52:19.996Z,6.33
2018-07-30T02:54:54.860Z,7.07
2018-07-30T02:57:30.202Z,6.70
2018-07-30T03:00:06.453Z,6.60
2018-07-30T03:02:41.015Z,6.73
2018-07-30T03:05:16.358Z,6.40
2018-07-30T03:07:51.546Z,5.87
2018-07-30T03:10:26.620Z,6.33
2018-07-30T03:13:01.643Z,6.37
2018-07-30T03:15:36.949Z,6.30
2018-07-30T03:18:12.032Z,6.20
2018-07-30T03:20:46.850Z,7.17
2018-07-30T03:23:22.002Z,6.60
2018-07-30T03:25:57.080Z,6.13
2018-07-30T03:28:32.090Z,6.33
2018-07-30T03:31:07.000Z,6.53
2018-07-30T03:33:42.283Z,6.83
2018-07-30T03:36:17.220Z,6.73
2018-07-30T03:38:52.651Z,6.57
2018-07-30T03:41:27.528Z,7.40
2018-07-30T03:44:02.742Z,6.73
2018-07-30T03:46:38.432Z,6.13
2018-07-30T03:49:13.418Z,6.53
2018-07-30T03:51:48.758Z,6.30
2018-07-30T03:54:23.637Z,5.73
2018-07-30T03:56:58.814Z,6.17
2018-07-30T03:59:36.972Z,6.50
2018-07-30T04:02:12.834Z,6.90
2018-07-30T04:04:47.878Z,6.03
2018-07-30T04:07:22.850Z,6.10
2018-07-30T04:09:57.714Z,5.90
2018-07-30T04:12:32.833Z,6.13
2018-07-30T04:15:09.126Z,5.23
2018-07-30T04:17:44.209Z,6.20
2018-07-30T04:20:19.204Z,6.03
2018-07-30T04:22:53.757Z,5.33
2018-07-30T04:25:28.759Z,5.80
2018-07-30T04:28:03.909Z,5.43
2018-07-30T04:30:39.305Z,5.47
2018-07-30T04:33:14.472Z,5.70
2018-07-30T04:35:49.531Z,6.20
2018-07-30T04:38:24.302Z,5.93
2018-07-30T04:40:59.366Z,5.27
2018-07-30T04:43:35.381Z,5.50
2018-07-30T04:46:11.052Z,5.57
2018-07-30T04:48:45.968Z,5.10
2018-07-30T04:51:21.003Z,5.60
2018-07-30T04:53:56.099Z,5.40
2018-07-30T04:56:31.146Z,5.80
2018-07-30T04:59:06.267Z,5.40
2018-07-30T05:01:40.867Z,5.13
2018-07-30T05:04:16.038Z,6.20
2018-07-30T05:06:51.247Z,5.80
2018-07-30T05:09:26.245Z,6.77
2018-07-30T05:12:01.276Z,5.60
2018-07-30T05:14:36.795Z,5.27
2018-07-30T05:17:11.978Z,5.57
2018-07-30T05:19:46.839Z,5.63
2018-07-30T05:22:22.238Z,5.93
2018-07-30T05:24:57.476Z,5.87
2018-07-30T05:27:32.580Z,6.63
2018-07-30T05:30:07.860Z,6.57
2018-07-30T05:32:43.367Z,6.60
2018-07-30T05:35:18.702Z,6.10
2018-07-30T05:37:53.832Z,7.30
2018-07-30T05:40:33.935Z,6.90
2018-07-30T05:43:08.945Z,6.17
2018-07-30T05:45:43.884Z,6.40
2018-07-30T05:48:19.039Z,6.37
2018-07-30T05:50:53.729Z,5.80
2018-07-30T05:53:28.753Z,5.50
2018-07-30T05:56:04.879Z,6.30
2018-07-30T05:58:40.268Z,5.40
2018-07-30T06:01:15.786Z,5.23
2018-07-30T06:03:50.928Z,5.30
2018-07-30T06:06:26.186Z,5.80
2018-07-30T06:09:01.469Z,5.63
2018-07-30T06:11:36.692Z,5.20
2018-07-30T06:14:11.902Z,5.90
2018-07-30T06:16:46.971Z,5.00
2018-07-30T06:19:22.634Z,5.60
2018-07-30T06:21:57.622Z,5.30
2018-07-30T06:24:33.498Z,4.77
2018-07-30T06:27:08.592Z,4.90
2018-07-30T06:29:43.899Z,5.10
2018-07-30T06:32:18.663Z,5.33
2018-07-30T06:34:59.056Z,5.53
2018-07-30T06:37:34.173Z,5.03
2018-07-30T06:40:09.565Z,5.10
2018-07-30T06:42:44.959Z,4.70
2018-07-30T06:45:19.759Z,5.60
2018-07-30T06:47:54.839Z,5.80
2018-07-30T06:50:30.347Z,4.97
2018-07-30T06:53:05.413Z,5.83
2018-07-30T06:55:40.784Z,5.33
2018-07-30T06:58:15.556Z,5.23
2018-07-30T07:00:50.776Z,5.07
2018-07-30T07:03:26.514Z,5.70
2018-07-30T07:06:01.806Z,5.40
2018-07-30T07:08:37.587Z,4.90
2018-07-30T07:11:12.511Z,5.60
2018-07-30T07:13:47.970Z,5.53
2018-07-30T07:16:22.917Z,5.60
2018-07-30T07:18:58.109Z,5.70
2018-07-30T07:21:33.608Z,5.50
2018-07-30T07:24:08.590Z,5.37
2018-07-30T07:26:43.866Z,5.47
2018-07-30T07:29:18.993Z,5.73
2018-07-30T07:31:54.005Z,5.70
2018-07-30T07:34:29.101Z,5.90
2018-07-30T07:37:04.159Z,5.70
2018-07-30T07:39:39.147Z,6.10
2018-07-30T07:42:15.971Z,6.50
2018-07-30T07:44:51.333Z,7.00
2018-07-30T07:47:26.692Z,6.50
2018-07-30T07:50:01.602Z,6.70
2018-07-30T07:52:36.837Z,5.90
2018-07-30T07:55:11.945Z,6.73
2018-07-30T07:57:47.652Z,6.20
2018-07-30T08:00:22.959Z,6.10
2018-07-30T08:02:58.015Z,5.53
2018-07-30T08:05:33.244Z,6.00
2018-07-30T08:08:08.388Z,5.70
2018-07-30T08:10:43.643Z,5.60
2018-07-30T08:13:19.113Z,5.57
2018-07-30T08:15:53.895Z,5.60
2018-07-30T08:18:29.191Z,5.47
2018-07-30T08:21:04.912Z,5.53
2018-07-30T08:23:39.988Z,5.80
2018-07-30T08:26:15.081Z,5.30
2018-07-30T08:28:50.272Z,5.33
2018-07-30T08:31:25.264Z,4.90
2018-07-30T08:34:00.375Z,5.37
2018-07-30T08:36:35.420Z,5.40
2018-07-30T08:39:11.243Z,4.83
2018-07-30T08:41:46.594Z,4.87
2018-07-30T08:44:21.444Z,5.10
2018-07-30T08:46:56.380Z,4.53
2018-07-30T08:49:31.403Z,5.23
2018-07-30T08:52:06.207Z,5.20
2018-07-30T08:54:41.326Z,5.67
2018-07-30T08:57:16.413Z,5.47
2018-07-30T08:59:51.451Z,5.03
2018-07-30T09:02:26.858Z,5.50
2018-07-30T09:05:02.082Z,5.13
2018-07-30T09:07:37.604Z,4.90
2018-07-30T09:10:12.435Z,5.33
2018-07-30T09:12:48.015Z,5.00
2018-07-30T09:15:23.146Z,4.53
2018-07-30T09:17:58.173Z,4.77
2018-07-30T09:20:33.392Z,4.10
2018-07-30T09:23:08.604Z,4.60
2018-07-30T09:25:43.786Z,4.77
2018-07-30T09:28:18.980Z,4.63
2018-07-30T09:30:54.047Z,4.70
2018-07-30T09:33:29.363Z,4.10
2018-07-30T09:36:04.378Z,5.03
2018-07-30T09:38:39.638Z,4.30
2018-07-30T09:41:15.068Z,3.70
2018-07-30T09:43:50.823Z,4.30
2018-07-30T09:46:26.175Z,4.03
2018-07-30T09:49:02.000Z,4.20
2018-07-30T09:51:36.959Z,4.07
2018-07-30T09:54:11.970Z,4.10
2018-07-30T09:56:47.191Z,3.80
2018-07-30T09:59:22.245Z,3.70
2018-07-30T10:01:57.385Z,4.37
2018-07-30T10:04:32.351Z,4.23
2018-07-30T10:07:08.411Z,3.83
2018-07-30T10:09:43.495Z,3.47
2018-07-30T10:12:18.451Z,4.10
2018-07-30T10:14:53.069Z,4.10
2018-07-30T10:17:28.302Z,3.60
2018-07-30T10:20:03.698Z,3.80
2018-07-30T10:22:38.668Z,3.73
2018-07-30T10:25:13.526Z,4.00
2018-07-30T10:27:48.426Z,3.80
2018-07-30T10:30:23.296Z,4.60
2018-07-30T10:32:58.312Z,3.43
2018-07-30T10:35:33.362Z,3.43
2018-07-30T10:38:08.435Z,3.90
2018-07-30T10:40:44.252Z,3.50
2018-07-30T10:43:19.053Z,3.23
2018-07-30T10:45:54.028Z,3.53
2018-07-30T10:48:29.191Z,4.27
2018-07-30T10:51:04.175Z,3.60
2018-07-30T10:53:39.012Z,4.40
2018-07-30T10:56:13.655Z,3.53
2018-07-30T10:58:48.462Z,4.37
2018-07-30T11:01:23.899Z,4.80
2018-07-30T11:03:58.853Z,3.97
2018-07-30T11:06:34.160Z,3.60
2018-07-30T11:09:13.803Z,4.17
2018-07-30T11:11:48.133Z,3.50
2018-07-30T11:14:23.099Z,3.70
2018-07-30T11:16:58.524Z,3.80
2018-07-30T11:19:33.611Z,4.30
2018-07-30T11:22:09.478Z,3.73
2018-07-30T11:24:44.639Z,4.40
2018-07-30T11:27:19.536Z,4.13
2018-07-30T11:29:54.078Z,3.80
2018-07-30T11:32:29.261Z,3.60
2018-07-30T11:35:04.227Z,3.70
2018-07-30T11:37:39.807Z,3.30
2018-07-30T11:40:14.674Z,4.00
2018-07-30T11:42:50.213Z,4.30
2018-07-30T11:45:25.367Z,4.00
2018-07-30T11:48:01.398Z,4.30
2018-07-30T11:50:36.359Z,3.50
2018-07-30T11:53:11.395Z,4.20
2018-07-30T11:55:46.929Z,3.40
2018-07-30T11:58:21.760Z,3.80
2018-07-30T12:00:57.096Z,3.57
2018-07-30T12:03:32.748Z,3.57
2018-07-30T12:06:07.729Z,3.87
2018-07-30T12:08:37.947Z,3.50
2018-07-30T12:11:08.311Z,3.10
2018-07-30T12:13:37.755Z,3.20
2018-07-30T12:16:07.085Z,3.40
2018-07-30T12:18:36.465Z,3.63
2018-07-30T12:21:06.208Z,3.53
2018-07-30T12:23:35.916Z,3.30
2018-07-30T12:26:05.452Z,4.00
2018-07-30T12:28:35.421Z,3.05
2018-07-30T12:31:04.835Z,3.20
2018-07-30T12:33:34.902Z,3.67
2018-07-30T12:36:04.569Z,3.50
2018-07-30T12:38:33.710Z,3.70
2018-07-30T12:41:03.200Z,3.27
2018-07-30T12:43:32.966Z,3.20
2018-07-30T12:46:02.904Z,3.40
2018-07-30T12:48:32.295Z,3.77
2018-07-30T12:51:01.784Z,3.37
2018-07-30T12:53:31.440Z,3.23
2018-07-30T12:56:06.904Z,3.20
2018-07-30T12:58:42.088Z,3.50
2018-07-30T13:01:17.641Z,3.45
2018-07-30T13:03:52.934Z,4.30
2018-07-30T13:06:28.578Z,3.60
2018-07-30T13:09:04.379Z,4.00
2018-07-30T13:11:39.405Z,3.30
2018-07-30T13:14:14.646Z,3.70
2018-07-30T13:16:49.600Z,3.60
2018-07-30T13:19:23.877Z,4.03
2018-07-30T13:21:59.342Z,3.30
2018-07-30T13:24:34.279Z,3.67
2018-07-30T13:27:08.819Z,3.93
2018-07-30T13:29:38.211Z,3.50
2018-07-30T13:32:08.344Z,3.70
2018-07-30T13:34:40.005Z,3.50
2018-07-30T13:37:10.193Z,3.30
2018-07-30T13:39:39.612Z,3.93
2018-07-30T13:42:09.900Z,3.37
2018-07-30T13:44:39.967Z,4.08
2018-07-30T13:47:10.336Z,3.33
2018-07-30T13:49:46.062Z,3.27
2018-07-30T13:52:21.194Z,4.07
2018-07-30T13:54:56.681Z,3.42
2018-07-30T13:57:26.526Z,3.20
2018-07-30T14:00:02.823Z,3.60
2018-07-30T14:02:38.819Z,3.80
2018-07-30T14:05:14.619Z,3.70
2018-07-30T14:07:50.497Z,3.33
2018-07-30T14:10:25.938Z,3.67
2018-07-30T14:13:02.196Z,3.77
2018-07-30T14:15:38.102Z,3.37
2018-07-30T14:18:12.943Z,3.33
2018-07-30T14:20:48.570Z,3.45
2018-07-30T14:23:24.529Z,3.80
2018-07-30T14:25:59.976Z,3.70
2018-07-30T14:28:35.178Z,3.57
2018-07-30T14:31:10.477Z,3.25
2018-07-30T14:33:46.740Z,3.62
2018-07-30T14:36:22.872Z,3.08
2018-07-30T14:38:58.323Z,2.83
2018-07-30T14:41:34.489Z,2.98
2018-07-30T14:44:09.448Z,2.95
2018-07-30T14:46:45.228Z,3.22
2018-07-30T14:49:20.725Z,2.90
2018-07-30T14:51:56.731Z,2.90
2018-07-30T14:54:32.429Z,2.80
2018-07-30T14:57:08.064Z,3.20
2018-07-30T14:59:42.943Z,2.90
2018-07-30T15:02:19.407Z,2.80
2018-07-30T15:04:54.958Z,2.98
2018-07-30T15:07:32.030Z,3.25
2018-07-30T15:10:07.711Z,3.10
2018-07-30T15:12:43.099Z,2.90
2018-07-30T15:15:18.844Z,3.05
2018-07-30T15:17:54.684Z,3.00
2018-07-30T15:20:30.052Z,2.85
2018-07-30T15:23:06.096Z,3.10
2018-07-30T15:25:41.610Z,2.70
2018-07-30T15:28:17.214Z,3.30
2018-07-30T15:30:53.031Z,2.60
2018-07-30T15:33:28.489Z,2.80
2018-07-30T15:36:04.111Z,3.02
2018-07-30T15:38:34.275Z,2.90
2018-07-30T15:41:09.739Z,2.95
2018-07-30T15:43:45.334Z,3.00
2018-07-30T15:46:20.368Z,3.00
2018-07-30T15:48:55.965Z,3.02
2018-07-30T15:51:31.813Z,3.05
2018-07-30T15:54:08.311Z,2.80
2018-07-30T15:56:43.659Z,2.98
2018-07-30T15:59:19.101Z,3.42
2018-07-30T16:01:54.763Z,2.67
2018-07-30T16:07:12.682Z,3.22
2018-07-30T16:09:48.270Z,3.17
2018-07-30T16:12:24.483Z,3.02
2018-07-30T16:15:00.026Z,3.00
2018-07-30T16:17:36.484Z,2.85
2018-07-30T16:20:12.187Z,3.10
2018-07-30T16:22:47.492Z,2.98
2018-07-30T16:25:23.078Z,3.08
2018-07-30T16:27:58.696Z,3.25
2018-07-30T16:30:34.065Z,2.95
2018-07-30T16:33:10.375Z,3.15
2018-07-30T16:35:46.088Z,2.70
2018-07-30T16:38:22.417Z,3.15
2018-07-30T16:40:58.140Z,2.80
2018-07-30T16:43:34.617Z,3.00
2018-07-30T16:46:10.181Z,3.10
2018-07-30T16:48:46.323Z,2.83
2018-07-30T16:51:22.092Z,2.95
2018-07-30T16:53:57.828Z,2.80
2018-07-30T16:56:33.932Z,2.70
2018-07-30T16:59:09.685Z,2.80
2018-07-30T17:01:46.527Z,3.20
2018-07-30T17:04:22.425Z,2.95
2018-07-30T17:06:52.633Z,3.10
2018-07-30T17:09:28.122Z,3.33
2018-07-30T17:12:03.631Z,2.95
2018-07-30T17:14:39.113Z,3.02
2018-07-30T17:17:14.787Z,3.45
2018-07-30T17:19:50.830Z,3.50
2018-07-30T17:22:26.333Z,3.20
2018-07-30T17:25:01.865Z,3.35
2018-07-30T17:27:36.998Z,3.20
2018-07-30T17:30:14.390Z,3.10
2018-07-30T17:32:50.169Z,3.40
2018-07-30T17:35:26.323Z,3.60
2018-07-30T17:38:06.137Z,3.50
2018-07-30T17:40:41.725Z,3.15
2018-07-30T17:43:17.705Z,3.55
2018-07-30T17:45:53.726Z,3.50
2018-07-30T17:48:29.624Z,3.27
2018-07-30T17:51:05.546Z,3.87
2018-07-30T17:53:41.231Z,4.00
2018-07-30T17:56:17.302Z,3.50
2018-07-30T17:58:52.924Z,3.77
2018-07-30T18:01:28.681Z,3.62
2018-07-30T18:04:04.203Z,3.00
2018-07-30T18:06:39.214Z,3.13
2018-07-30T18:09:14.955Z,3.42
2018-07-30T18:11:50.835Z,3.20
2018-07-30T18:14:25.893Z,3.10
2018-07-30T18:17:01.358Z,3.35
2018-07-30T18:19:36.755Z,3.47
2018-07-30T18:22:12.104Z,3.50
2018-07-30T18:24:47.216Z,3.47
2018-07-30T18:27:22.462Z,3.03
2018-07-30T18:29:58.888Z,3.20
2018-07-30T18:32:34.771Z,3.17
2018-07-30T18:35:09.863Z,3.30
2018-07-30T18:37:44.559Z,3.00
2018-07-30T18:40:20.258Z,3.58
2018-07-30T18:42:56.150Z,3.40
2018-07-30T18:45:32.104Z,3.20
2018-07-30T18:48:07.346Z,2.87
2018-07-30T18:50:43.033Z,3.20
2018-07-30T18:53:18.242Z,3.60
2018-07-30T18:55:54.307Z,3.58
2018-07-30T18:58:29.213Z,3.50
2018-07-30T19:01:04.326Z,3.43
2018-07-30T19:03:39.398Z,3.57
2018-07-30T19:06:15.584Z,3.80
2018-07-30T19:08:50.798Z,3.37
2018-07-30T19:11:25.985Z,3.00
2018-07-30T19:14:01.245Z,3.23
2018-07-30T19:16:36.788Z,3.10
2018-07-30T19:19:11.832Z,3.00
2018-07-30T19:21:47.437Z,3.00
2018-07-30T19:24:22.353Z,3.20
2018-07-30T19:26:57.518Z,3.27
2018-07-30T19:29:32.737Z,3.23
2018-07-30T19:32:07.767Z,3.43
2018-07-30T19:34:43.313Z,3.60
2018-07-30T19:37:19.236Z,3.87
2018-07-30T19:39:54.774Z,3.80
2018-07-30T19:42:29.905Z,3.73
2018-07-30T19:45:06.030Z,3.60
2018-07-30T19:47:41.653Z,3.87
2018-07-30T19:50:16.620Z,3.87
2018-07-30T19:52:52.727Z,4.20
2018-07-30T19:55:34.366Z,4.20
2018-07-30T19:58:09.629Z,4.00
2018-07-30T20:00:45.679Z,4.20
2018-07-30T20:03:20.699Z,4.13
2018-07-30T20:05:56.599Z,4.20
2018-07-30T20:08:32.196Z,3.80
2018-07-30T20:11:08.872Z,3.93
2018-07-30T20:13:44.176Z,3.70
2018-07-30T20:16:19.302Z,4.30
2018-07-30T20:18:54.589Z,3.87
2018-07-30T20:21:30.089Z,3.90
2018-07-30T20:24:06.018Z,3.50
2018-07-30T20:26:41.231Z,3.90
2018-07-30T20:29:16.867Z,3.53
2018-07-30T20:31:52.066Z,3.73
2018-07-30T20:34:27.910Z,3.63
2018-07-30T20:37:02.884Z,3.30
2018-07-30T20:39:38.107Z,3.33
2018-07-30T20:42:12.916Z,3.30
2018-07-30T20:44:47.775Z,3.50
2018-07-30T20:47:22.953Z,3.43
2018-07-30T20:49:58.365Z,3.70
2018-07-30T20:52:33.467Z,3.40
2018-07-30T20:55:08.337Z,3.10
2018-07-30T20:57:43.400Z,3.50
2018-07-30T21:00:19.202Z,3.60
2018-07-30T21:02:53.949Z,3.30
2018-07-30T21:05:31.975Z,3.10
2018-07-30T21:08:06.886Z,2.97
2018-07-30T21:10:42.689Z,3.20
2018-07-30T21:13:17.980Z,3.10
2018-07-30T21:15:52.984Z,2.83
2018-07-30T21:18:28.111Z,3.27
2018-07-30T21:21:03.442Z,3.43
2018-07-30T21:23:39.098Z,3.07
2018-07-30T21:26:14.438Z,3.37
2018-07-30T21:28:50.455Z,2.60
2018-07-30T21:31:25.336Z,3.50
2018-07-30T21:34:00.608Z,2.73
2018-07-30T21:36:35.724Z,3.20
2018-07-30T21:39:12.712Z,2.60
2018-07-30T21:41:47.554Z,2.90
2018-07-30T21:44:22.977Z,2.37
2018-07-30T21:46:58.058Z,3.27
2018-07-30T21:49:32.969Z,3.10
2018-07-30T21:52:08.193Z,2.77
2018-07-30T21:54:43.436Z,2.80
2018-07-30T21:57:18.209Z,2.70
2018-07-30T21:59:53.319Z,2.70
2018-07-30T22:02:28.663Z,2.80
2018-07-30T22:05:03.751Z,2.60
2018-07-30T22:07:38.732Z,3.37
2018-07-30T22:10:13.791Z,2.77
2018-07-30T22:12:48.819Z,2.87
2018-07-30T22:15:24.672Z,2.73
2018-07-30T22:18:00.114Z,2.47
2018-07-30T22:20:35.200Z,2.90
2018-07-30T22:23:10.321Z,2.50
2018-07-30T22:25:45.518Z,2.43
2018-07-30T22:28:20.649Z,3.00
2018-07-30T22:30:55.824Z,2.80
2018-07-30T22:33:31.653Z,2.50
2018-07-30T22:36:06.828Z,3.23
2018-07-30T22:38:41.815Z,3.13
2018-07-30T22:41:16.581Z,2.70
2018-07-30T22:43:51.075Z,3.23
2018-07-30T22:46:25.839Z,3.30
2018-07-30T22:49:00.866Z,3.00
2018-07-30T22:51:35.832Z,2.90
2018-07-30T22:54:10.848Z,3.27
2018-07-30T22:56:46.056Z,3.50
2018-07-30T22:59:21.084Z,3.10
2018-07-30T23:01:56.053Z,3.60
2018-07-30T23:04:31.163Z,3.23
2018-07-30T23:07:06.603Z,3.53
2018-07-30T23:09:41.408Z,3.50
2018-07-30T23:12:11.123Z,3.57
2018-07-30T23:14:45.938Z,3.30
2018-07-30T23:17:20.903Z,3.33
2018-07-30T23:19:55.819Z,3.53
2018-07-30T23:22:30.995Z,3.47
2018-07-30T23:25:06.039Z,3.20
2018-07-30T23:27:41.072Z,3.70
2018-07-30T23:30:16.249Z,4.00
2018-07-30T23:32:51.210Z,3.23
2018-07-30T23:35:26.127Z,3.37
2018-07-30T23:38:00.926Z,4.33
2018-07-30T23:40:36.828Z,3.67
2018-07-30T23:43:11.958Z,3.77
2018-07-30T23:45:47.044Z,4.13
2018-07-30T23:48:22.311Z,3.63
2018-07-30T23:50:57.235Z,3.33
2018-07-30T23:53:32.135Z,3.60
2018-07-30T23:56:07.248Z,4.17
2018-07-30T23:58:42.583Z,4.40
